createdAt,value
2017-05-20T00:00:49.462Z,12.30
2017-05-20T00:01:46.412Z,12.40
2017-05-20T00:02:43.399Z,12.40
2017-05-20T00:03:40.355Z,12.40
2017-05-20T00:04:37.323Z,12.40
2017-05-20T00:05:34.316Z,12.40
2017-05-20T00:06:31.274Z,12.50
2017-05-20T00:07:28.228Z,12.40
2017-05-20T00:08:25.215Z,12.40
2017-05-20T00:09:22.181Z,12.40
2017-05-20T00:10:19.152Z,12.40
2017-05-20T00:11:16.142Z,12.50
2017-05-20T00:12:13.838Z,12.50
2017-05-20T00:13:10.807Z,12.50
2017-05-20T00:14:07.785Z,12.50
2017-05-20T00:15:04.743Z,12.50
2017-05-20T00:16:01.702Z,12.50
2017-05-20T00:16:58.663Z,12.40
2017-05-20T00:17:55.628Z,12.40
2017-05-20T00:18:52.578Z,12.40
2017-05-20T00:19:49.948Z,12.50
2017-05-20T00:20:46.929Z,12.50
2017-05-20T00:21:43.906Z,12.50
2017-05-20T00:22:40.867Z,12.50
2017-05-20T00:23:37.887Z,12.50
2017-05-20T00:24:34.869Z,12.40
2017-05-20T00:25:31.832Z,12.50
2017-05-20T00:26:29.091Z,12.40
2017-05-20T00:27:26.062Z,12.40
2017-05-20T00:28:23.762Z,12.40
2017-05-20T00:29:20.721Z,12.40
2017-05-20T00:30:17.706Z,12.40
2017-05-20T00:31:14.684Z,12.40
2017-05-20T00:32:11.654Z,12.40
2017-05-20T00:33:08.618Z,12.40
2017-05-20T00:34:05.582Z,12.40
2017-05-20T00:35:02.538Z,12.40
2017-05-20T00:35:59.542Z,12.40
2017-05-20T00:36:56.495Z,12.40
2017-05-20T00:37:53.461Z,12.40
2017-05-20T00:38:50.407Z,12.30
2017-05-20T00:39:47.407Z,12.30
2017-05-20T00:40:44.365Z,12.30
2017-05-20T00:41:41.337Z,12.30
2017-05-20T00:42:38.301Z,12.30
2017-05-20T00:43:35.256Z,12.30
2017-05-20T00:44:32.223Z,12.30
2017-05-20T00:45:29.177Z,12.30
2017-05-20T00:46:26.139Z,12.30
2017-05-20T00:47:23.119Z,12.30
2017-05-20T00:48:20.069Z,12.30
2017-05-20T00:49:17.773Z,12.30
2017-05-20T00:50:14.745Z,12.30
2017-05-20T00:51:11.698Z,12.30
2017-05-20T00:52:08.679Z,12.30
2017-05-20T00:53:05.658Z,12.30
2017-05-20T00:54:02.615Z,12.30
2017-05-20T00:54:59.566Z,12.30
2017-05-20T00:55:56.629Z,12.30
2017-05-20T00:56:53.607Z,12.30
2017-05-20T00:57:50.835Z,12.30
2017-05-20T00:58:47.840Z,12.30
2017-05-20T00:59:44.887Z,12.30
2017-05-20T01:00:41.846Z,12.20
2017-05-20T01:01:39.570Z,12.20
2017-05-20T01:02:36.536Z,12.20
2017-05-20T01:03:33.485Z,12.20
2017-05-20T01:04:30.445Z,12.20
2017-05-20T01:05:27.398Z,12.20
2017-05-20T01:06:24.370Z,12.20
2017-05-20T01:07:21.360Z,12.20
2017-05-20T01:08:18.332Z,12.20
2017-05-20T01:09:15.298Z,12.30
2017-05-20T01:10:12.255Z,12.20
2017-05-20T01:11:09.218Z,12.20
2017-05-20T01:12:06.180Z,12.20
2017-05-20T01:13:03.176Z,12.20
2017-05-20T01:14:00.139Z,12.20
2017-05-20T01:14:57.102Z,12.10
2017-05-20T01:15:54.846Z,12.10
2017-05-20T01:16:51.822Z,12.20
2017-05-20T01:17:48.779Z,12.20
2017-05-20T01:18:45.810Z,12.20
2017-05-20T01:19:42.766Z,12.20
2017-05-20T01:20:39.722Z,12.20
2017-05-20T01:21:36.707Z,12.20
2017-05-20T01:22:33.667Z,12.20
2017-05-20T01:23:30.636Z,12.10
2017-05-20T01:24:27.694Z,12.20
2017-05-20T01:25:24.654Z,12.20
2017-05-20T01:26:21.605Z,12.10
2017-05-20T01:27:18.573Z,12.10
2017-05-20T01:28:15.527Z,12.10
2017-05-20T01:29:12.476Z,12.00
2017-05-20T01:30:09.454Z,12.10
2017-05-20T01:31:06.423Z,12.00
2017-05-20T01:32:03.381Z,12.00
2017-05-20T01:33:00.358Z,12.00
2017-05-20T01:33:57.650Z,12.00
2017-05-20T01:34:54.624Z,12.00
2017-05-20T01:35:51.614Z,12.00
2017-05-20T01:36:48.563Z,12.00
2017-05-20T01:37:45.525Z,12.00
2017-05-20T01:38:42.495Z,12.00
2017-05-20T01:39:39.456Z,12.00
2017-05-20T01:40:36.440Z,11.90
2017-05-20T01:41:33.416Z,11.90
2017-05-20T01:42:30.367Z,11.90
2017-05-20T01:43:27.332Z,11.90
2017-05-20T01:44:24.291Z,11.90
2017-05-20T01:45:21.238Z,11.80
2017-05-20T01:46:18.219Z,11.80
2017-05-20T01:47:15.203Z,11.80
2017-05-20T01:48:12.172Z,11.80
2017-05-20T01:49:09.134Z,11.70
2017-05-20T01:50:06.090Z,11.70
2017-05-20T01:51:03.046Z,11.70
2017-05-20T01:52:00.033Z,11.70
2017-05-20T01:52:57.062Z,11.70
2017-05-20T01:53:54.062Z,11.70
2017-05-20T01:54:51.033Z,11.60
2017-05-20T01:55:47.983Z,11.60
2017-05-20T01:56:44.939Z,11.60
2017-05-20T01:57:42.007Z,11.60
2017-05-20T01:58:38.982Z,11.60
2017-05-20T01:59:35.939Z,11.60
2017-05-20T02:00:32.906Z,11.60
2017-05-20T02:01:29.869Z,11.50
2017-05-20T02:02:26.830Z,11.50
2017-05-20T02:03:23.803Z,11.50
2017-05-20T02:04:20.780Z,11.50
2017-05-20T02:05:17.731Z,11.50
2017-05-20T02:06:14.695Z,11.50
2017-05-20T02:07:11.653Z,11.50
2017-05-20T02:08:08.902Z,11.40
2017-05-20T02:09:05.864Z,11.40
2017-05-20T02:10:02.841Z,11.40
2017-05-20T02:10:59.803Z,11.40
2017-05-20T02:11:56.762Z,11.30
2017-05-20T02:12:53.732Z,11.30
2017-05-20T02:13:50.713Z,11.30
2017-05-20T02:14:47.854Z,11.30
2017-05-20T02:15:44.815Z,11.30
2017-05-20T02:16:41.775Z,11.30
2017-05-20T02:17:38.736Z,11.30
2017-05-20T02:18:35.689Z,11.30
2017-05-20T02:19:32.657Z,11.30
2017-05-20T02:20:29.936Z,11.30
2017-05-20T02:21:26.912Z,11.20
2017-05-20T02:22:23.876Z,11.20
2017-05-20T02:23:20.834Z,11.20
2017-05-20T02:24:17.809Z,11.20
2017-05-20T02:25:14.757Z,11.10
2017-05-20T02:26:11.724Z,11.10
2017-05-20T02:27:08.688Z,11.10
2017-05-20T02:28:05.661Z,11.10
2017-05-20T02:29:02.687Z,11.10
2017-05-20T02:29:59.647Z,11.10
2017-05-20T02:30:56.598Z,11.10
2017-05-20T02:31:53.616Z,11.00
2017-05-20T02:32:50.597Z,11.00
2017-05-20T02:33:47.973Z,11.00
2017-05-20T02:34:44.934Z,11.00
2017-05-20T02:35:41.927Z,10.90
2017-05-20T02:36:38.892Z,10.90
2017-05-20T02:37:35.867Z,10.90
2017-05-20T02:38:32.838Z,10.90
2017-05-20T02:39:29.798Z,10.90
2017-05-20T02:40:26.755Z,10.90
2017-05-20T02:41:23.711Z,10.90
2017-05-20T02:42:20.667Z,10.90
2017-05-20T02:43:17.631Z,10.90
2017-05-20T02:44:14.637Z,10.90
2017-05-20T02:45:11.595Z,10.80
2017-05-20T02:46:08.558Z,10.90
2017-05-20T02:47:05.532Z,10.80
2017-05-20T02:48:02.483Z,10.80
2017-05-20T02:48:59.455Z,10.80
2017-05-20T02:49:56.434Z,10.80
2017-05-20T02:50:53.399Z,10.80
2017-05-20T02:51:50.356Z,10.80
2017-05-20T02:52:47.322Z,10.80
2017-05-20T02:54:42.973Z,10.70
2017-05-20T02:55:39.974Z,10.70
2017-05-20T02:56:36.927Z,10.70
2017-05-20T02:57:33.884Z,10.70
2017-05-20T02:58:30.833Z,10.70
2017-05-20T02:59:27.795Z,10.70
2017-05-20T03:00:24.762Z,10.70
2017-05-20T03:01:21.733Z,10.60
2017-05-20T03:02:18.686Z,10.60
2017-05-20T03:03:15.637Z,10.60
2017-05-20T03:04:12.607Z,10.60
2017-05-20T03:05:09.554Z,10.60
2017-05-20T03:06:06.513Z,10.60
2017-05-20T03:07:03.474Z,10.70
2017-05-20T03:08:00.434Z,10.70
2017-05-20T03:08:57.436Z,10.60
2017-05-20T03:09:54.395Z,10.60
2017-05-20T03:10:52.109Z,10.60
2017-05-20T03:11:49.149Z,10.60
2017-05-20T03:12:46.100Z,10.60
2017-05-20T03:13:43.064Z,10.60
2017-05-20T03:14:40.029Z,10.60
2017-05-20T03:15:37.087Z,10.60
2017-05-20T03:16:34.064Z,10.50
2017-05-20T03:17:31.033Z,10.60
2017-05-20T03:18:27.995Z,10.60
2017-05-20T03:19:24.949Z,10.60
2017-05-20T03:20:21.923Z,10.60
2017-05-20T03:21:18.883Z,10.60
2017-05-20T03:22:15.847Z,10.60
2017-05-20T03:23:12.823Z,10.60
2017-05-20T03:24:09.790Z,10.60
2017-05-20T03:25:06.830Z,10.60
2017-05-20T03:26:03.798Z,10.60
2017-05-20T03:27:00.816Z,10.60
2017-05-20T03:27:57.799Z,10.60
2017-05-20T03:28:54.762Z,10.60
2017-05-20T03:29:51.718Z,10.60
2017-05-20T03:30:48.692Z,10.60
2017-05-20T03:31:45.648Z,10.60
2017-05-20T03:32:42.611Z,10.50
2017-05-20T03:33:39.570Z,10.50
2017-05-20T03:34:36.528Z,10.60
2017-05-20T03:35:33.483Z,10.60
2017-05-20T03:36:30.433Z,10.60
2017-05-20T03:37:27.388Z,10.60
2017-05-20T03:38:24.344Z,10.60
2017-05-20T03:39:21.302Z,10.60
2017-05-20T03:40:18.494Z,10.50
2017-05-20T03:41:15.452Z,10.60
2017-05-20T03:42:12.408Z,10.50
2017-05-20T03:43:09.386Z,10.50
2017-05-20T03:44:06.339Z,10.50
2017-05-20T03:45:03.294Z,10.50
2017-05-20T03:46:00.243Z,10.50
2017-05-20T03:46:57.263Z,10.50
2017-05-20T03:47:54.213Z,10.50
2017-05-20T03:48:51.170Z,10.50
2017-05-20T03:49:48.865Z,10.50
2017-05-20T03:50:45.827Z,10.60
2017-05-20T03:51:42.796Z,10.60
2017-05-20T03:52:39.759Z,10.70
2017-05-20T03:53:36.706Z,10.80
2017-05-20T03:54:33.682Z,10.90
2017-05-20T03:55:30.645Z,11.00
2017-05-20T03:56:27.627Z,11.10
2017-05-20T03:57:24.592Z,11.30
2017-05-20T03:58:21.550Z,11.40
2017-05-20T03:59:18.509Z,11.50
2017-05-20T04:00:15.455Z,11.50
2017-05-20T04:01:12.415Z,11.40
2017-05-20T04:02:09.380Z,11.40
2017-05-20T04:03:06.366Z,11.40
2017-05-20T04:04:03.318Z,11.40
2017-05-20T04:05:00.286Z,11.20
2017-05-20T04:05:57.242Z,11.20
2017-05-20T04:06:54.216Z,11.20
2017-05-20T04:07:51.972Z,11.20
2017-05-20T04:08:48.927Z,11.10
2017-05-20T04:09:45.891Z,11.10
2017-05-20T04:10:42.862Z,11.00
2017-05-20T04:11:39.844Z,11.00
2017-05-20T04:12:36.796Z,11.00
2017-05-20T04:13:33.746Z,10.90
2017-05-20T04:14:30.711Z,10.90
2017-05-20T04:15:27.685Z,10.80
2017-05-20T04:16:24.641Z,10.80
2017-05-20T04:17:21.609Z,10.80
2017-05-20T04:18:18.563Z,10.80
2017-05-20T04:19:15.524Z,10.80
2017-05-20T04:20:12.479Z,10.80
2017-05-20T04:21:10.170Z,10.80
2017-05-20T04:22:07.126Z,10.80
2017-05-20T04:23:04.090Z,10.80
2017-05-20T04:24:01.045Z,10.80
2017-05-20T04:24:58.004Z,10.80
2017-05-20T04:25:54.963Z,10.90
2017-05-20T04:26:51.937Z,10.90
2017-05-20T04:27:48.908Z,10.90
2017-05-20T04:28:45.869Z,10.90
2017-05-20T04:29:42.824Z,10.90
2017-05-20T04:30:39.794Z,10.90
2017-05-20T04:31:36.753Z,10.90
2017-05-20T04:32:33.714Z,10.90
2017-05-20T04:33:30.682Z,10.90
2017-05-20T04:34:27.666Z,10.90
2017-05-20T04:35:24.650Z,10.90
2017-05-20T04:36:21.622Z,10.90
2017-05-20T04:37:18.580Z,11.00
2017-05-20T04:38:15.534Z,11.00
2017-05-20T04:39:12.499Z,11.00
2017-05-20T04:40:09.460Z,11.00
2017-05-20T04:41:06.420Z,10.90
2017-05-20T04:42:03.374Z,10.90
2017-05-20T04:43:00.349Z,10.90
2017-05-20T04:43:58.052Z,11.00
2017-05-20T04:44:55.246Z,10.90
2017-05-20T04:45:52.941Z,11.00
2017-05-20T04:46:49.893Z,11.00
2017-05-20T04:47:46.866Z,11.00
2017-05-20T04:48:43.854Z,11.00
2017-05-20T04:49:40.841Z,11.10
2017-05-20T04:50:37.941Z,11.10
2017-05-20T04:51:34.899Z,11.20
2017-05-20T04:52:31.860Z,11.20
2017-05-20T04:53:28.999Z,11.20
2017-05-20T04:54:25.976Z,11.30
2017-05-20T04:55:22.927Z,11.30
2017-05-20T04:56:19.885Z,11.30
2017-05-20T04:57:16.857Z,11.30
2017-05-20T04:58:13.810Z,11.40
2017-05-20T04:59:10.771Z,11.40
2017-05-20T05:00:07.744Z,11.50
2017-05-20T05:01:05.043Z,11.50
2017-05-20T05:02:02.005Z,11.50
2017-05-20T05:02:59.737Z,11.50
2017-05-20T05:03:56.705Z,11.60
2017-05-20T05:04:53.672Z,11.60
2017-05-20T05:05:50.619Z,11.60
2017-05-20T05:06:47.633Z,11.60
2017-05-20T05:07:44.601Z,11.70
2017-05-20T05:08:41.552Z,11.70
2017-05-20T05:09:38.510Z,11.70
2017-05-20T05:10:36.226Z,11.70
2017-05-20T05:11:33.195Z,11.70
2017-05-20T05:12:30.894Z,11.70
2017-05-20T05:13:27.915Z,11.70
2017-05-20T05:14:24.880Z,11.80
2017-05-20T05:15:21.866Z,11.70
2017-05-20T05:16:18.834Z,11.80
2017-05-20T05:17:15.803Z,11.80
2017-05-20T05:18:12.765Z,11.80
2017-05-20T05:19:09.736Z,11.80
2017-05-20T05:20:06.698Z,11.80
2017-05-20T05:21:03.662Z,11.90
2017-05-20T05:22:00.652Z,11.90
2017-05-20T05:22:57.616Z,11.90
2017-05-20T05:23:54.575Z,12.00
2017-05-20T05:24:51.538Z,11.90
2017-05-20T05:25:48.507Z,12.00
2017-05-20T05:26:45.474Z,12.00
2017-05-20T05:27:42.431Z,12.00
2017-05-20T05:28:39.398Z,12.10
2017-05-20T05:29:36.362Z,12.20
2017-05-20T05:30:33.337Z,12.40
2017-05-20T05:31:30.305Z,12.40
2017-05-20T05:32:27.282Z,12.50
2017-05-20T05:33:24.237Z,12.50
2017-05-20T05:34:21.230Z,12.50
2017-05-20T05:35:18.188Z,12.40
2017-05-20T05:36:15.151Z,12.50
2017-05-20T05:37:12.115Z,12.60
2017-05-20T05:38:09.069Z,12.70
2017-05-20T05:39:06.038Z,12.70
2017-05-20T05:40:03.018Z,12.80
2017-05-20T05:41:49.994Z,12.90
2017-05-20T05:42:46.947Z,13.00
2017-05-20T05:43:43.909Z,13.10
2017-05-20T05:44:40.865Z,13.30
2017-05-20T05:45:37.842Z,13.40
2017-05-20T05:46:34.807Z,13.60
2017-05-20T05:47:31.776Z,13.80
2017-05-20T05:48:28.730Z,14.00
2017-05-20T05:49:25.678Z,14.10
2017-05-20T05:50:22.711Z,14.20
2017-05-20T05:51:19.642Z,14.20
2017-05-20T05:52:16.641Z,14.30
2017-05-20T05:53:13.623Z,14.40
2017-05-20T05:54:10.590Z,14.50
2017-05-20T05:55:07.543Z,14.70
2017-05-20T05:56:04.511Z,14.70
2017-05-20T05:57:01.463Z,15.00
2017-05-20T05:57:58.415Z,15.10
2017-05-20T05:58:55.395Z,15.40
2017-05-20T05:59:52.354Z,15.50
2017-05-20T06:00:50.137Z,15.70
2017-05-20T06:01:47.095Z,15.80
2017-05-20T06:02:44.050Z,15.90
2017-05-20T06:03:41.095Z,15.80
2017-05-20T06:04:38.051Z,15.90
2017-05-20T06:05:35.013Z,16.10
2017-05-20T06:06:31.985Z,16.30
2017-05-20T06:07:28.939Z,16.40
2017-05-20T06:08:25.900Z,16.50
2017-05-20T06:09:22.870Z,16.70
2017-05-20T06:10:19.828Z,16.80
2017-05-20T06:11:16.854Z,16.90
2017-05-20T06:12:13.815Z,16.90
2017-05-20T06:13:10.766Z,17.20
2017-05-20T06:14:07.729Z,17.40
2017-05-20T06:15:04.682Z,17.50
2017-05-20T06:16:01.633Z,17.60
2017-05-20T06:16:58.602Z,17.80
2017-05-20T06:17:55.579Z,18.10
2017-05-20T06:18:52.534Z,18.30
2017-05-20T06:19:49.499Z,18.40
2017-05-20T06:20:46.466Z,18.30
2017-05-20T06:21:43.447Z,18.30
2017-05-20T06:22:40.413Z,18.30
2017-05-20T06:23:37.370Z,18.20
2017-05-20T06:24:35.066Z,18.10
2017-05-20T06:25:32.027Z,18.10
2017-05-20T06:26:28.984Z,18.20
2017-05-20T06:27:25.947Z,18.60
2017-05-20T06:28:22.930Z,19.10
2017-05-20T06:29:19.891Z,19.80
2017-05-20T06:30:16.839Z,20.30
2017-05-20T06:31:13.791Z,21.00
2017-05-20T06:32:10.750Z,21.70
2017-05-20T06:33:07.710Z,22.40
2017-05-20T06:34:04.702Z,22.80
2017-05-20T06:35:01.649Z,23.20
2017-05-20T06:35:58.661Z,23.60
2017-05-20T06:36:55.640Z,23.80
2017-05-20T06:37:52.590Z,24.20
2017-05-20T06:38:49.550Z,24.70
2017-05-20T06:39:47.264Z,25.00
2017-05-20T06:40:44.233Z,25.20
2017-05-20T06:41:41.942Z,25.40
2017-05-20T06:42:38.894Z,25.50
2017-05-20T06:43:35.863Z,25.60
2017-05-20T06:44:32.831Z,25.30
2017-05-20T06:45:29.798Z,24.80
2017-05-20T06:46:26.749Z,24.40
2017-05-20T06:47:23.702Z,24.10
2017-05-20T06:48:20.693Z,23.90
2017-05-20T06:49:17.655Z,24.00
2017-05-20T06:50:14.631Z,23.90
2017-05-20T06:51:11.580Z,23.90
2017-05-20T06:52:08.530Z,24.00
2017-05-20T06:53:05.491Z,24.30
2017-05-20T06:54:02.445Z,24.40
2017-05-20T06:54:59.396Z,24.30
2017-05-20T06:55:56.371Z,24.20
2017-05-20T06:56:53.339Z,24.00
2017-05-20T06:57:50.298Z,23.90
2017-05-20T06:58:47.997Z,23.70
2017-05-20T06:59:44.948Z,23.50
2017-05-20T07:00:41.909Z,23.20
2017-05-20T07:01:38.898Z,23.20
2017-05-20T07:02:35.844Z,23.20
2017-05-20T07:03:32.807Z,23.20
2017-05-20T07:04:29.757Z,23.40
2017-05-20T07:05:26.723Z,24.00
2017-05-20T07:06:23.698Z,24.30
2017-05-20T07:07:20.658Z,24.60
2017-05-20T07:08:17.616Z,24.90
2017-05-20T07:09:14.588Z,25.40
2017-05-20T07:10:11.565Z,25.60
2017-05-20T07:11:08.542Z,26.00
2017-05-20T07:12:05.494Z,26.00
2017-05-20T07:13:02.478Z,26.00
2017-05-20T07:14:00.187Z,25.60
2017-05-20T07:14:57.142Z,25.20
2017-05-20T07:15:54.103Z,25.40
2017-05-20T07:16:51.057Z,25.70
2017-05-20T07:17:48.249Z,25.90
2017-05-20T07:18:45.218Z,26.00
2017-05-20T07:19:42.183Z,26.40
2017-05-20T07:20:39.155Z,26.50
2017-05-20T07:21:36.110Z,26.10
2017-05-20T07:22:33.054Z,25.30
2017-05-20T07:23:30.023Z,24.60
2017-05-20T07:24:26.990Z,24.00
2017-05-20T07:25:23.949Z,23.10
2017-05-20T07:26:20.932Z,22.50
2017-05-20T07:27:17.900Z,22.60
2017-05-20T07:28:14.852Z,22.90
2017-05-20T07:29:11.826Z,23.10
2017-05-20T07:30:08.799Z,22.80
2017-05-20T07:31:05.763Z,22.50
2017-05-20T07:32:02.734Z,22.90
2017-05-20T07:32:59.699Z,23.10
2017-05-20T07:33:56.658Z,23.50
2017-05-20T07:34:53.606Z,24.00
2017-05-20T07:35:50.579Z,24.20
2017-05-20T07:36:47.538Z,24.70
2017-05-20T07:37:44.497Z,24.90
2017-05-20T07:38:41.451Z,25.10
2017-05-20T07:39:38.423Z,25.40
2017-05-20T07:40:35.436Z,25.50
2017-05-20T07:41:32.380Z,25.60
2017-05-20T07:42:29.348Z,26.10
2017-05-20T07:43:26.307Z,26.20
2017-05-20T07:44:23.263Z,26.10
2017-05-20T07:45:20.234Z,25.40
2017-05-20T07:46:17.198Z,25.00
2017-05-20T07:47:14.159Z,25.00
2017-05-20T07:48:11.115Z,25.30
2017-05-20T07:49:08.439Z,25.60
2017-05-20T07:50:05.415Z,26.00
2017-05-20T07:51:02.395Z,24.90
2017-05-20T07:51:59.348Z,24.10
2017-05-20T07:52:56.318Z,24.10
2017-05-20T07:53:53.299Z,24.50
2017-05-20T07:54:50.282Z,24.90
2017-05-20T07:55:47.266Z,25.20
2017-05-20T07:56:44.237Z,25.50
2017-05-20T07:57:41.247Z,26.00
2017-05-20T07:58:38.202Z,26.10
2017-05-20T07:59:35.899Z,25.40
2017-05-20T08:00:32.846Z,25.50
2017-05-20T08:01:29.814Z,25.80
2017-05-20T08:02:26.785Z,25.70
2017-05-20T08:03:23.757Z,25.30
2017-05-20T08:04:20.722Z,25.00
2017-05-20T08:05:17.691Z,24.80
2017-05-20T08:06:14.647Z,24.70
2017-05-20T08:07:11.602Z,24.90
2017-05-20T08:08:08.578Z,25.10
2017-05-20T08:09:06.287Z,25.20
2017-05-20T08:10:03.249Z,25.30
2017-05-20T08:11:00.210Z,25.50
2017-05-20T08:11:57.895Z,25.60
2017-05-20T08:12:54.866Z,25.70
2017-05-20T08:13:51.818Z,25.50
2017-05-20T08:14:48.815Z,24.90
2017-05-20T08:15:45.787Z,24.80
2017-05-20T08:16:42.745Z,25.00
2017-05-20T08:17:39.704Z,25.40
2017-05-20T08:18:36.667Z,25.70
2017-05-20T08:19:33.610Z,25.70
2017-05-20T08:20:30.571Z,25.70
2017-05-20T08:21:28.275Z,25.90
2017-05-20T08:22:25.239Z,26.10
2017-05-20T08:23:22.201Z,26.20
2017-05-20T08:24:19.924Z,26.30
2017-05-20T08:25:16.890Z,26.60
2017-05-20T08:26:13.846Z,26.70
2017-05-20T08:27:10.979Z,26.60
2017-05-20T08:28:07.933Z,26.30
2017-05-20T08:29:04.892Z,26.20
2017-05-20T08:30:01.846Z,26.30
2017-05-20T08:30:58.800Z,26.30
2017-05-20T08:31:55.774Z,25.90
2017-05-20T08:32:52.795Z,25.60
2017-05-20T08:33:50.083Z,25.20
2017-05-20T08:34:47.035Z,25.00
2017-05-20T08:35:44.007Z,24.80
2017-05-20T08:36:40.969Z,24.50
2017-05-20T08:37:37.923Z,23.90
2017-05-20T08:38:34.884Z,23.40
2017-05-20T08:39:31.968Z,23.00
2017-05-20T08:40:28.920Z,22.20
2017-05-20T08:41:25.893Z,21.50
2017-05-20T08:42:22.990Z,21.20
2017-05-20T08:43:19.965Z,20.80
2017-05-20T08:44:16.912Z,20.70
2017-05-20T08:45:13.875Z,20.50
2017-05-20T08:46:10.863Z,20.30
2017-05-20T08:47:07.820Z,20.20
2017-05-20T08:48:04.768Z,20.00
2017-05-20T08:49:01.726Z,19.80
2017-05-20T08:49:58.708Z,19.60
2017-05-20T08:50:55.659Z,19.50
2017-05-20T08:51:52.621Z,19.30
2017-05-20T08:52:49.588Z,19.10
2017-05-20T08:53:46.566Z,19.00
2017-05-20T08:54:44.254Z,18.80
2017-05-20T08:55:41.250Z,18.60
2017-05-20T08:56:38.948Z,18.60
2017-05-20T08:57:35.916Z,18.50
2017-05-20T08:58:32.947Z,18.50
2017-05-20T08:59:29.904Z,18.50
2017-05-20T09:00:26.866Z,18.60
2017-05-20T09:01:23.842Z,18.60
2017-05-20T09:02:20.807Z,18.60
2017-05-20T09:03:18.504Z,18.60
2017-05-20T09:04:15.463Z,18.70
2017-05-20T09:05:12.421Z,18.70
2017-05-20T09:06:09.379Z,18.70
2017-05-20T09:07:07.106Z,18.70
2017-05-20T09:08:04.079Z,18.70
2017-05-20T09:09:01.065Z,18.60
2017-05-20T09:09:58.021Z,18.60
2017-05-20T09:10:54.986Z,18.60
2017-05-20T09:11:51.950Z,18.40
2017-05-20T09:12:48.931Z,18.30
2017-05-20T09:13:45.882Z,18.30
2017-05-20T09:14:42.832Z,18.30
2017-05-20T09:15:39.790Z,18.50
2017-05-20T09:16:36.756Z,18.40
2017-05-20T09:17:33.709Z,18.40
2017-05-20T09:18:30.669Z,18.30
2017-05-20T09:19:27.627Z,18.30
2017-05-20T09:20:24.652Z,18.10
2017-05-20T09:21:21.601Z,18.10
2017-05-20T09:22:18.562Z,18.00
2017-05-20T09:23:15.539Z,17.80
2017-05-20T09:24:12.497Z,17.70
2017-05-20T09:25:09.459Z,17.50
2017-05-20T09:26:06.423Z,17.50
2017-05-20T09:27:03.382Z,17.40
2017-05-20T09:28:01.087Z,17.20
2017-05-20T09:28:58.072Z,17.00
2017-05-20T09:29:55.767Z,16.80
2017-05-20T09:30:52.727Z,16.80
2017-05-20T09:31:50.280Z,16.70
2017-05-20T09:32:47.228Z,16.70
2017-05-20T09:33:44.931Z,16.60
2017-05-20T09:34:41.914Z,16.60
2017-05-20T09:35:38.900Z,16.60
2017-05-20T09:36:35.854Z,16.70
2017-05-20T09:37:32.882Z,16.70
2017-05-20T09:38:29.850Z,16.70
2017-05-20T09:39:26.826Z,16.80
2017-05-20T09:40:23.790Z,16.90
2017-05-20T09:41:20.770Z,16.90
2017-05-20T09:42:17.732Z,17.00
2017-05-20T09:43:14.690Z,17.00
2017-05-20T09:44:11.643Z,17.10
2017-05-20T09:45:08.613Z,17.10
2017-05-20T09:46:06.319Z,17.20
2017-05-20T09:47:03.303Z,17.30
2017-05-20T09:48:01.003Z,17.40
2017-05-20T09:48:57.963Z,17.50
2017-05-20T09:49:54.922Z,17.50
2017-05-20T09:50:51.903Z,17.70
2017-05-20T09:51:48.859Z,17.90
2017-05-20T09:52:45.852Z,18.10
2017-05-20T09:53:42.822Z,18.30
2017-05-20T09:54:39.795Z,18.40
2017-05-20T09:55:36.761Z,18.50
2017-05-20T09:56:33.727Z,18.50
2017-05-20T09:57:30.682Z,18.40
2017-05-20T09:58:27.666Z,18.50
2017-05-20T09:59:24.654Z,18.60
2017-05-20T10:00:21.634Z,18.70
2017-05-20T10:01:18.634Z,18.70
2017-05-20T10:02:15.577Z,18.50
2017-05-20T10:03:12.562Z,18.50
2017-05-20T10:04:09.527Z,18.60
2017-05-20T10:05:06.486Z,18.70
2017-05-20T10:06:03.449Z,18.80
2017-05-20T10:07:00.401Z,18.90
2017-05-20T10:07:57.357Z,18.90
2017-05-20T10:08:54.319Z,19.00
2017-05-20T10:09:51.373Z,19.00
2017-05-20T10:10:49.093Z,18.90
2017-05-20T10:11:46.056Z,19.00
2017-05-20T10:12:42.998Z,18.90
2017-05-20T10:13:39.972Z,18.70
2017-05-20T10:14:36.942Z,18.70
2017-05-20T10:15:33.899Z,18.60
2017-05-20T10:16:30.871Z,18.60
2017-05-20T10:17:27.830Z,18.60
2017-05-20T10:18:24.995Z,18.50
2017-05-20T10:19:21.947Z,18.50
2017-05-20T10:20:18.893Z,18.60
2017-05-20T10:21:15.858Z,18.60
2017-05-20T10:22:12.840Z,18.70
2017-05-20T10:23:09.874Z,18.80
2017-05-20T10:24:06.846Z,18.80
2017-05-20T10:25:03.806Z,18.90
2017-05-20T10:26:00.754Z,18.80
2017-05-20T10:26:57.715Z,18.90
2017-05-20T10:27:54.670Z,18.90
2017-05-20T10:28:51.902Z,19.00
2017-05-20T10:29:48.846Z,19.10
2017-05-20T10:30:46.556Z,19.10
2017-05-20T10:31:43.518Z,19.10
2017-05-20T10:32:40.468Z,19.10
2017-05-20T10:33:38.174Z,19.10
2017-05-20T10:34:35.135Z,19.10
2017-05-20T10:35:32.094Z,19.10
2017-05-20T10:36:29.099Z,19.20
2017-05-20T10:37:26.054Z,19.30
2017-05-20T10:38:23.003Z,19.30
2017-05-20T10:39:19.986Z,19.30
2017-05-20T10:40:16.951Z,19.20
2017-05-20T10:41:13.906Z,19.30
2017-05-20T10:42:10.894Z,19.30
2017-05-20T10:43:07.859Z,19.30
2017-05-20T10:44:04.942Z,19.30
2017-05-20T10:45:01.899Z,19.40
2017-05-20T10:45:58.863Z,19.40
2017-05-20T10:46:55.815Z,19.50
2017-05-20T10:47:52.786Z,19.50
2017-05-20T10:48:50.395Z,19.60
2017-05-20T10:49:47.934Z,19.50
2017-05-20T10:50:44.892Z,19.50
2017-05-20T10:51:41.850Z,19.50
2017-05-20T10:52:38.791Z,19.60
2017-05-20T10:53:35.754Z,19.60
2017-05-20T10:54:32.719Z,19.60
2017-05-20T10:55:29.687Z,19.50
2017-05-20T10:56:26.645Z,19.40
2017-05-20T10:57:23.594Z,19.30
2017-05-20T10:58:20.569Z,19.20
2017-05-20T10:59:17.524Z,19.10
2017-05-20T11:00:14.489Z,19.10
2017-05-20T11:01:11.439Z,19.10
2017-05-20T11:02:08.394Z,19.10
2017-05-20T11:03:05.352Z,19.10
2017-05-20T11:04:02.319Z,19.10
2017-05-20T11:04:59.295Z,19.10
2017-05-20T11:05:56.255Z,19.20
2017-05-20T11:06:53.208Z,19.30
2017-05-20T11:07:50.537Z,19.40
2017-05-20T11:08:48.227Z,19.30
2017-05-20T11:09:45.207Z,19.50
2017-05-20T11:10:42.172Z,19.50
2017-05-20T11:11:39.149Z,19.50
2017-05-20T11:12:36.130Z,19.50
2017-05-20T11:13:33.122Z,19.70
2017-05-20T11:14:30.077Z,19.70
2017-05-20T11:15:27.045Z,19.90
2017-05-20T11:16:24.013Z,20.00
2017-05-20T11:17:20.990Z,20.10
2017-05-20T11:18:17.943Z,20.20
2017-05-20T11:19:14.903Z,20.30
2017-05-20T11:20:11.874Z,20.20
2017-05-20T11:21:08.857Z,20.20
2017-05-20T11:22:06.008Z,20.10
2017-05-20T11:23:02.958Z,20.00
2017-05-20T11:23:59.915Z,20.00
2017-05-20T11:24:56.877Z,20.10
2017-05-20T11:25:53.847Z,20.30
2017-05-20T11:26:50.808Z,20.30
2017-05-20T11:27:47.837Z,20.50
2017-05-20T11:28:44.791Z,20.50
2017-05-20T11:29:41.788Z,20.60
2017-05-20T11:30:38.732Z,20.60
2017-05-20T11:31:35.718Z,20.60
2017-05-20T11:32:32.694Z,20.60
2017-05-20T11:33:29.656Z,20.60
2017-05-20T11:34:26.878Z,20.50
2017-05-20T11:35:23.830Z,20.40
2017-05-20T11:36:20.792Z,20.50
2017-05-20T11:37:17.770Z,20.50
2017-05-20T11:38:14.731Z,20.60
2017-05-20T11:39:11.687Z,20.70
2017-05-20T11:40:08.638Z,20.60
2017-05-20T11:41:05.599Z,20.80
2017-05-20T11:42:02.559Z,20.60
2017-05-20T11:42:59.512Z,20.60
2017-05-20T11:43:56.528Z,20.40
2017-05-20T11:44:53.494Z,20.50
2017-05-20T11:45:50.448Z,20.30
2017-05-20T11:46:47.494Z,20.30
2017-05-20T11:47:44.458Z,20.30
2017-05-20T11:48:41.420Z,20.40
2017-05-20T11:49:38.399Z,20.30
2017-05-20T11:50:35.362Z,20.40
2017-05-20T11:51:33.065Z,20.30
2017-05-20T11:52:30.017Z,20.30
2017-05-20T11:53:26.987Z,20.30
2017-05-20T11:54:23.937Z,20.20
2017-05-20T11:55:20.912Z,20.30
2017-05-20T11:56:17.889Z,20.40
2017-05-20T11:57:14.844Z,20.40
2017-05-20T11:58:11.809Z,20.50
2017-05-20T11:59:08.770Z,20.50
2017-05-20T12:00:05.734Z,20.50
2017-05-20T12:01:03.439Z,20.40
2017-05-20T12:02:00.399Z,20.50
2017-05-20T12:02:57.559Z,20.60
2017-05-20T12:03:55.239Z,20.60
2017-05-20T12:04:52.198Z,20.70
2017-05-20T12:05:49.153Z,20.60
2017-05-20T12:06:46.128Z,20.60
2017-05-20T12:07:43.088Z,20.60
2017-05-20T12:08:40.042Z,20.60
2017-05-20T12:09:36.999Z,20.50
2017-05-20T12:10:33.963Z,20.60
2017-05-20T12:11:30.930Z,20.60
2017-05-20T12:12:27.885Z,20.70
2017-05-20T12:13:24.864Z,20.60
2017-05-20T12:14:21.828Z,20.60
2017-05-20T12:15:18.799Z,20.60
2017-05-20T12:16:15.759Z,20.70